createdAt,value
2022-08-05T00:00:17.712Z,36.44
2022-08-05T00:02:51.383Z,36.52
2022-08-05T00:06:03.030Z,37.63
2022-08-05T00:08:32.901Z,36.33
2022-08-05T00:10:53.977Z,35.91
2022-08-05T00:13:20.638Z,36.99
2022-08-05T00:16:08.439Z,37.49
2022-08-05T00:18:40.989Z,37.36
2022-08-05T00:21:09.392Z,37.58
2022-08-05T00:23:46.717Z,38.27
2022-08-05T00:26:22.155Z,38.18
2022-08-05T00:28:49.947Z,37.98
2022-08-05T00:31:16.589Z,37.49
2022-08-05T00:34:53.308Z,38.40
2022-08-05T00:37:10.519Z,38.10
2022-08-05T00:39:44.512Z,38.61
2022-08-05T00:42:37.717Z,38.26
2022-08-05T00:45:08.679Z,38.69
2022-08-05T00:47:56.657Z,38.68
2022-08-05T00:50:25.460Z,38.50
2022-08-05T00:52:53.354Z,39.64
2022-08-05T00:55:23.219Z,39.22
2022-08-05T00:58:01.319Z,38.78
2022-08-05T01:00:29.853Z,38.98
2022-08-05T01:02:59.730Z,39.40
2022-08-05T01:05:27.788Z,39.64
2022-08-05T01:08:40.662Z,39.46
2022-08-05T01:10:54.082Z,38.94
2022-08-05T01:13:57.494Z,38.95
2022-08-05T01:16:44.234Z,39.35
2022-08-05T01:19:19.106Z,39.67
2022-08-05T01:22:04.711Z,39.35
2022-08-05T01:24:49.667Z,39.91
2022-08-05T01:27:19.681Z,40.40
2022-08-05T01:29:54.628Z,40.34
2022-08-05T01:32:27.576Z,41.14
2022-08-05T01:35:03.396Z,40.62
2022-08-05T01:37:44.525Z,40.22
2022-08-05T01:40:14.176Z,40.17
2022-08-05T01:42:46.942Z,40.32
2022-08-05T01:45:16.592Z,40.64
2022-08-05T01:47:46.308Z,41.70
2022-08-05T01:50:28.539Z,41.32
2022-08-05T01:53:01.566Z,40.56
2022-08-05T01:55:36.016Z,40.21
2022-08-05T01:58:15.530Z,40.87
2022-08-05T02:00:48.842Z,41.12
2022-08-05T02:03:34.455Z,41.58
2022-08-05T02:06:03.666Z,41.02
2022-08-05T02:08:57.784Z,42.44
2022-08-05T02:11:34.100Z,42.50
2022-08-05T02:14:12.562Z,42.21
2022-08-05T02:16:53.280Z,41.68
2022-08-05T02:19:34.923Z,41.48
2022-08-05T02:22:25.624Z,40.66
2022-08-05T02:25:03.321Z,42.18
2022-08-05T02:27:58.927Z,41.94
2022-08-05T02:30:26.907Z,41.72
2022-08-05T02:32:56.693Z,42.94
2022-08-05T02:35:33.174Z,41.78
2022-08-05T02:38:09.563Z,44.56
2022-08-05T02:40:41.705Z,42.97
2022-08-05T02:43:13.870Z,42.49
2022-08-05T02:45:51.637Z,42.57
2022-08-05T02:48:29.171Z,42.21
2022-08-05T02:51:01.146Z,43.11
2022-08-05T02:53:39.549Z,44.12
2022-08-05T02:56:10.406Z,43.00
2022-08-05T02:58:44.942Z,44.28
2022-08-05T03:01:21.566Z,44.31
2022-08-05T03:04:02.582Z,42.52
2022-08-05T03:06:53.944Z,42.92
2022-08-05T03:09:27.127Z,42.82
2022-08-05T03:12:05.383Z,42.70
2022-08-05T03:14:32.287Z,42.94
2022-08-05T03:16:59.387Z,42.37
2022-08-05T03:19:33.953Z,42.74
2022-08-05T03:22:03.177Z,42.82
2022-08-05T03:24:32.533Z,43.58
2022-08-05T03:27:01.071Z,43.51
2022-08-05T03:29:44.827Z,43.94
2022-08-05T03:32:15.724Z,44.26
2022-08-05T03:34:50.518Z,44.79
2022-08-05T03:37:19.053Z,45.04
2022-08-05T03:39:59.475Z,44.24
2022-08-05T03:42:29.040Z,44.03
2022-08-05T03:44:55.985Z,43.62
2022-08-05T03:47:24.380Z,43.71
2022-08-05T03:49:52.398Z,44.22
2022-08-05T03:52:37.397Z,43.93
2022-08-05T03:56:05.579Z,44.33
2022-08-05T03:58:17.797Z,44.43
2022-08-05T04:00:51.555Z,44.16
2022-08-05T04:03:28.266Z,44.19
2022-08-05T04:05:57.959Z,44.77
2022-08-05T04:08:35.120Z,46.59
2022-08-05T04:11:04.918Z,46.00
2022-08-05T04:13:53.464Z,44.80
2022-08-05T04:16:24.095Z,44.43
2022-08-05T04:18:54.011Z,44.04
2022-08-05T04:22:08.641Z,43.47
2022-08-05T04:24:09.043Z,44.50
2022-08-05T04:26:40.902Z,44.92
2022-08-05T04:29:07.799Z,45.02
2022-08-05T04:31:38.763Z,44.81
2022-08-05T04:34:18.976Z,44.95
2022-08-05T04:36:53.226Z,44.61
2022-08-05T04:39:20.101Z,45.10
2022-08-05T04:41:48.432Z,44.59
2022-08-05T04:44:21.038Z,44.40
2022-08-05T04:46:55.862Z,45.51
2022-08-05T04:49:24.576Z,45.95
2022-08-05T04:52:00.246Z,45.49
2022-08-05T04:54:27.271Z,44.91
2022-08-05T04:56:58.931Z,44.92
2022-08-05T04:59:36.814Z,44.45
2022-08-05T05:02:36.203Z,44.40
2022-08-05T05:05:02.787Z,44.67
2022-08-05T05:07:32.635Z,45.08
2022-08-05T05:10:02.985Z,44.47
2022-08-05T05:12:29.997Z,44.91
2022-08-05T05:14:56.709Z,44.98
2022-08-05T05:17:55.969Z,44.90
2022-08-05T05:20:12.768Z,44.72
2022-08-05T05:22:40.678Z,45.04
2022-08-05T05:25:16.468Z,47.43
2022-08-05T05:27:53.780Z,47.04
2022-08-05T05:30:31.509Z,47.14
2022-08-05T05:33:16.602Z,47.37
2022-08-05T05:35:47.992Z,46.78
2022-08-05T05:38:22.889Z,47.28
2022-08-05T05:40:55.335Z,47.78
2022-08-05T05:43:56.814Z,48.29
2022-08-05T05:46:17.590Z,47.86
2022-08-05T05:48:47.789Z,47.28
2022-08-05T05:51:23.288Z,47.31
2022-08-05T05:53:57.747Z,47.03
2022-08-05T05:56:32.289Z,46.14
2022-08-05T05:59:05.354Z,45.29
2022-08-05T06:01:37.070Z,44.82
2022-08-05T06:04:12.211Z,44.25
2022-08-05T06:06:46.691Z,44.89
2022-08-05T06:09:17.086Z,46.75
2022-08-05T06:12:02.080Z,45.81
2022-08-05T06:14:31.217Z,44.86
2022-08-05T06:16:58.998Z,45.39
2022-08-05T06:19:35.052Z,44.24
2022-08-05T06:22:07.037Z,44.80
2022-08-05T06:24:35.292Z,43.75
2022-08-05T06:27:04.089Z,43.36
2022-08-05T06:29:48.864Z,43.60
2022-08-05T06:32:26.066Z,44.24
2022-08-05T06:34:57.367Z,45.47
2022-08-05T06:37:56.225Z,43.56
2022-08-05T06:40:13.720Z,44.48
2022-08-05T06:42:43.970Z,45.82
2022-08-05T06:45:20.679Z,43.35
2022-08-05T06:48:36.112Z,40.87
2022-08-05T06:50:35.177Z,38.07
2022-08-05T06:53:11.614Z,38.66
2022-08-05T06:55:46.153Z,37.28
2022-08-05T06:58:29.694Z,36.00
2022-08-05T07:01:01.696Z,34.65
2022-08-05T07:03:32.898Z,33.43
2022-08-05T07:06:05.694Z,32.72
2022-08-05T07:08:47.561Z,33.71
2022-08-05T07:11:22.477Z,34.10
2022-08-05T07:13:59.207Z,36.23
2022-08-05T07:17:57.357Z,34.55
2022-08-05T07:19:53.825Z,34.41
2022-08-05T07:22:07.635Z,35.60
2022-08-05T07:24:35.170Z,34.77
2022-08-05T07:27:10.754Z,35.41
2022-08-05T07:30:28.128Z,35.25
2022-08-05T07:32:26.107Z,36.81
2022-08-05T07:34:57.877Z,36.29
2022-08-05T07:37:29.063Z,35.35
2022-08-05T07:40:31.419Z,36.90
2022-08-05T07:42:53.739Z,37.86
2022-08-05T07:45:56.705Z,39.42
2022-08-05T07:48:07.154Z,40.80
2022-08-05T07:50:35.409Z,39.64
2022-08-05T07:53:03.545Z,39.37
2022-08-05T07:55:44.620Z,39.94
2022-08-05T07:58:54.698Z,40.41
2022-08-05T08:01:06.192Z,42.13
2022-08-05T08:03:44.468Z,40.09
2022-08-05T08:06:11.709Z,39.16
2022-08-05T08:08:38.488Z,39.12
2022-08-05T08:11:08.983Z,40.77
2022-08-05T08:13:42.937Z,38.28
2022-08-05T08:16:49.745Z,38.46
2022-08-05T08:20:10.291Z,37.19
2022-08-05T08:22:00.514Z,37.71
2022-08-05T08:24:27.289Z,37.08
2022-08-05T08:27:16.667Z,35.74
2022-08-05T08:30:05.983Z,36.50
2022-08-05T08:32:30.147Z,35.35
2022-08-05T08:34:59.216Z,35.11
2022-08-05T08:37:27.943Z,33.99
2022-08-05T08:39:55.106Z,34.23
2022-08-05T08:42:34.073Z,33.83
2022-08-05T08:45:24.181Z,33.35
2022-08-05T08:48:12.364Z,31.95
2022-08-05T08:51:22.447Z,31.80
2022-08-05T08:53:36.944Z,33.67
2022-08-05T08:56:06.267Z,34.76
2022-08-05T08:58:43.981Z,36.07
2022-08-05T09:01:15.923Z,36.83
2022-08-05T09:03:55.366Z,37.55
2022-08-05T09:06:30.535Z,38.31
2022-08-05T09:09:01.707Z,38.33
2022-08-05T09:11:52.531Z,39.54
2022-08-05T09:14:57.621Z,38.80
2022-08-05T09:17:41.242Z,39.16
2022-08-05T09:20:02.913Z,38.61
2022-08-05T09:23:09.251Z,34.85
2022-08-05T09:26:02.155Z,34.87
2022-08-05T09:28:31.935Z,32.57
2022-08-05T09:31:22.753Z,32.92
2022-08-05T09:34:01.898Z,32.63
2022-08-05T09:36:55.650Z,35.23
2022-08-05T09:39:39.530Z,35.35
2022-08-05T09:42:23.289Z,34.96
2022-08-05T09:44:56.512Z,35.34
2022-08-05T09:47:36.577Z,35.64
2022-08-05T09:50:18.181Z,36.37
2022-08-05T09:53:00.536Z,36.46
2022-08-05T09:55:56.991Z,38.46
2022-08-05T09:58:15.266Z,38.19
2022-08-05T10:01:15.380Z,38.38
2022-08-05T10:04:11.014Z,37.42
2022-08-05T10:06:39.884Z,37.28
2022-08-05T10:09:24.963Z,36.24
2022-08-05T10:12:18.949Z,36.88
2022-08-05T10:14:54.473Z,37.66
2022-08-05T10:17:38.119Z,38.13
2022-08-05T10:20:09.755Z,37.54
2022-08-05T10:22:40.167Z,38.08
2022-08-05T10:25:10.114Z,39.36
2022-08-05T10:28:13.360Z,36.34
2022-08-05T10:31:19.890Z,37.64
2022-08-05T10:33:15.571Z,32.18
2022-08-05T10:35:44.160Z,33.08
2022-08-05T10:38:13.519Z,35.66
2022-08-05T10:40:49.350Z,35.79
2022-08-05T10:43:46.866Z,35.81
2022-08-05T10:46:18.307Z,36.33
2022-08-05T10:49:01.470Z,37.47
2022-08-05T10:51:48.635Z,39.08
2022-08-05T10:54:56.137Z,38.54
2022-08-05T10:57:29.399Z,36.20
2022-08-05T11:00:22.693Z,37.05
2022-08-05T11:03:23.889Z,35.16
2022-08-05T11:06:15.048Z,35.20
2022-08-05T11:09:24.161Z,33.04
2022-08-05T11:11:59.234Z,30.63
2022-08-05T11:15:01.495Z,34.25
2022-08-05T11:17:58.122Z,34.57
2022-08-05T11:20:49.780Z,34.54
2022-08-05T11:24:05.470Z,31.48
2022-08-05T11:26:32.510Z,26.57
2022-08-05T11:29:13.220Z,28.31
2022-08-05T11:31:58.204Z,28.01
2022-08-05T11:34:50.832Z,28.57
2022-08-05T11:38:28.305Z,29.50
2022-08-05T11:41:01.025Z,28.74
2022-08-05T11:44:06.534Z,29.04
2022-08-05T11:46:30.738Z,28.84
2022-08-05T11:49:01.548Z,28.68
2022-08-05T11:51:44.425Z,28.97
2022-08-05T11:54:33.508Z,28.92
2022-08-05T11:57:07.893Z,28.15
2022-08-05T11:59:50.037Z,28.96
2022-08-05T12:02:30.773Z,29.33
2022-08-05T12:05:07.439Z,28.28
2022-08-05T12:08:08.221Z,27.22
2022-08-05T12:10:43.567Z,27.39
2022-08-05T12:13:28.103Z,26.41
2022-08-05T12:16:14.508Z,26.57
2022-08-05T12:18:49.014Z,26.31
2022-08-05T12:21:41.835Z,26.34
2022-08-05T12:24:20.800Z,27.13
2022-08-05T12:26:54.455Z,28.47
2022-08-05T12:29:23.469Z,27.76
2022-08-05T12:31:53.556Z,27.13
2022-08-05T12:34:32.756Z,26.68
2022-08-05T12:37:06.694Z,25.71
2022-08-05T12:39:37.528Z,27.35
2022-08-05T12:42:20.239Z,25.97
2022-08-05T12:44:47.724Z,25.95
2022-08-05T12:47:30.627Z,26.17
2022-08-05T12:50:02.143Z,25.40
2022-08-05T12:52:38.592Z,26.71
2022-08-05T12:55:26.347Z,25.97
2022-08-05T12:58:50.058Z,26.73
2022-08-05T13:01:59.784Z,24.68
2022-08-05T13:03:41.497Z,24.75
2022-08-05T13:06:14.367Z,25.16
2022-08-05T13:08:51.556Z,26.04
2022-08-05T13:11:25.376Z,24.96
2022-08-05T13:14:19.851Z,26.49
2022-08-05T13:16:52.245Z,26.83
2022-08-05T13:19:21.631Z,25.18
2022-08-05T13:21:55.991Z,26.40
2022-08-05T13:24:36.599Z,27.21
2022-08-05T13:27:11.337Z,26.39
2022-08-05T13:30:31.566Z,26.72
2022-08-05T13:32:35.166Z,25.27
2022-08-05T13:35:10.245Z,25.22
2022-08-05T13:37:36.936Z,24.66
2022-08-05T13:40:15.890Z,24.85
2022-08-05T13:42:46.868Z,25.43
2022-08-05T13:45:13.739Z,25.14
2022-08-05T13:48:09.129Z,25.34
2022-08-05T13:50:37.213Z,25.36
2022-08-05T13:53:03.888Z,25.10
2022-08-05T13:55:41.926Z,25.48
2022-08-05T13:58:23.298Z,26.02
2022-08-05T14:00:58.532Z,25.39
2022-08-05T14:03:27.009Z,25.41
2022-08-05T14:06:24.845Z,26.23
2022-08-05T14:08:42.746Z,27.01
2022-08-05T14:11:20.646Z,26.51
2022-08-05T14:13:48.275Z,25.06
2022-08-05T14:16:16.959Z,24.83
2022-08-05T14:18:45.984Z,25.13
2022-08-05T14:22:07.704Z,24.06
2022-08-05T14:24:00.654Z,24.09
2022-08-05T14:26:35.717Z,23.45
2022-08-05T14:29:06.215Z,25.32
2022-08-05T14:32:02.410Z,23.44
2022-08-05T14:34:30.577Z,25.00
2022-08-05T14:37:02.986Z,25.35
2022-08-05T14:39:29.741Z,24.59
2022-08-05T14:42:21.237Z,24.70
2022-08-05T14:44:49.367Z,24.54
2022-08-05T14:47:17.432Z,25.16
2022-08-05T14:50:18.179Z,25.17
2022-08-05T14:52:52.922Z,27.01
2022-08-05T14:55:20.238Z,27.32
2022-08-05T14:57:54.579Z,28.99
2022-08-05T15:00:27.739Z,29.88
2022-08-05T15:02:55.372Z,30.58
2022-08-05T15:05:22.299Z,30.85
2022-08-05T15:08:06.363Z,31.48
2022-08-05T15:10:40.013Z,31.43
2022-08-05T15:13:10.302Z,31.68
2022-08-05T15:15:54.334Z,32.55
2022-08-05T15:18:23.046Z,32.48
2022-08-05T15:20:49.861Z,32.06
2022-08-05T15:23:18.109Z,31.97
2022-08-05T15:25:53.268Z,31.88
2022-08-05T15:28:27.205Z,31.81
2022-08-05T15:30:54.898Z,32.14
2022-08-05T15:34:05.291Z,31.64
2022-08-05T15:36:16.869Z,31.52
2022-08-05T15:38:50.975Z,31.36
2022-08-05T15:41:55.873Z,31.29
2022-08-05T15:44:24.385Z,31.30
2022-08-05T15:46:52.736Z,30.54
2022-08-05T15:49:41.854Z,30.64
2022-08-05T15:52:16.520Z,30.89
2022-08-05T15:54:46.431Z,30.73
2022-08-05T15:57:14.130Z,30.86
2022-08-05T15:59:43.022Z,30.62
2022-08-05T16:02:14.419Z,30.51
2022-08-05T16:04:55.005Z,30.88
2022-08-05T16:07:22.783Z,31.06
2022-08-05T16:09:50.235Z,31.02
2022-08-05T16:12:21.670Z,30.90
2022-08-05T16:14:48.395Z,31.02
2022-08-05T16:17:15.612Z,30.72
2022-08-05T16:20:04.199Z,31.06
2022-08-05T16:22:33.869Z,31.71
2022-08-05T16:25:09.334Z,32.01
2022-08-05T16:27:59.830Z,32.01
2022-08-05T16:30:26.316Z,31.94
2022-08-05T16:32:55.300Z,32.89
2022-08-05T16:35:28.651Z,32.84
2022-08-05T16:38:02.700Z,33.10
2022-08-05T16:40:47.712Z,33.39
2022-08-05T16:43:19.131Z,33.77
2022-08-05T16:46:03.727Z,33.53
2022-08-05T16:48:35.503Z,33.39
2022-08-05T16:51:09.287Z,33.48
2022-08-05T16:54:03.913Z,34.59
2022-08-05T16:56:30.628Z,35.39
2022-08-05T16:58:58.458Z,34.36
2022-08-05T17:01:25.621Z,34.62
2022-08-05T17:03:52.445Z,35.14
2022-08-05T17:06:20.920Z,36.26
2022-08-05T17:08:53.839Z,37.44
2022-08-05T17:11:25.350Z,37.87
2022-08-05T17:14:00.488Z,37.94
2022-08-05T17:16:38.276Z,36.84
2022-08-05T17:19:09.477Z,37.43
2022-08-05T17:21:39.668Z,37.83
2022-08-05T17:24:28.229Z,37.95
2022-08-05T17:26:57.571Z,36.40
2022-08-05T17:29:39.796Z,37.50
2022-08-05T17:32:11.434Z,37.20
2022-08-05T17:34:43.554Z,38.21
2022-08-05T17:37:27.276Z,39.44
2022-08-05T17:39:57.508Z,40.15
2022-08-05T17:42:32.161Z,40.87
2022-08-05T17:45:00.655Z,42.05
2022-08-05T17:47:44.614Z,43.23
2022-08-05T17:50:22.680Z,43.43
2022-08-05T17:52:56.202Z,43.89
2022-08-05T17:55:27.354Z,45.25
2022-08-05T17:58:01.762Z,45.28
2022-08-05T18:00:29.496Z,45.32
2022-08-05T18:02:56.491Z,44.61
2022-08-05T18:05:23.879Z,45.38
2022-08-05T18:07:55.049Z,45.06
2022-08-05T18:10:24.040Z,45.65
2022-08-05T18:12:51.287Z,43.81
2022-08-05T18:15:18.455Z,43.50
2022-08-05T18:18:00.523Z,44.73
2022-08-05T18:20:32.606Z,44.70
2022-08-05T18:23:00.611Z,44.88
2022-08-05T18:25:38.944Z,44.68
2022-08-05T18:28:06.826Z,43.53
2022-08-05T18:30:35.014Z,43.11
2022-08-05T18:33:05.679Z,42.32
2022-08-05T18:36:01.104Z,42.63
2022-08-05T18:38:26.127Z,42.72
2022-08-05T18:41:58.336Z,43.00
2022-08-05T18:43:43.002Z,43.86
2022-08-05T18:46:15.774Z,44.79
2022-08-05T18:48:52.080Z,43.96
2022-08-05T18:52:04.620Z,43.76
2022-08-05T18:54:10.831Z,44.78
2022-08-05T18:56:38.471Z,43.77
2022-08-05T18:59:43.620Z,44.17
2022-08-05T19:01:57.902Z,44.84
2022-08-05T19:04:25.837Z,44.37
2022-08-05T19:06:53.828Z,43.78
2022-08-05T19:09:21.870Z,43.24
2022-08-05T19:12:00.740Z,44.03
2022-08-05T19:14:52.345Z,44.00
2022-08-05T19:17:16.818Z,44.36
2022-08-05T19:19:46.474Z,42.94
2022-08-05T19:22:17.373Z,42.66
2022-08-05T19:24:55.836Z,42.81
2022-08-05T19:27:30.255Z,42.64
2022-08-05T19:29:57.528Z,43.52
2022-08-05T19:32:26.251Z,43.31
2022-08-05T19:34:55.807Z,43.12
2022-08-05T19:37:29.747Z,43.66
2022-08-05T19:40:02.524Z,44.62
2022-08-05T19:42:36.320Z,43.73
2022-08-05T19:45:06.833Z,43.40
2022-08-05T19:47:37.559Z,42.25
2022-08-05T19:50:06.207Z,43.58
2022-08-05T19:52:37.607Z,42.02
2022-08-05T19:55:06.611Z,42.00
2022-08-05T19:57:48.878Z,40.79
2022-08-05T20:00:21.082Z,41.83
2022-08-05T20:02:47.855Z,40.43
2022-08-05T20:05:24.583Z,40.41
2022-08-05T20:07:56.317Z,40.03
2022-08-05T20:10:25.908Z,40.98
2022-08-05T20:12:52.876Z,40.87
2022-08-05T20:15:48.734Z,42.26
2022-08-05T20:18:10.780Z,42.12
2022-08-05T20:20:56.353Z,42.08
2022-08-05T20:23:39.960Z,41.93
2022-08-05T20:26:16.351Z,42.51
2022-08-05T20:28:49.486Z,41.40
2022-08-05T20:31:22.825Z,41.75
2022-08-05T20:33:50.319Z,42.26
2022-08-05T20:36:18.249Z,42.45
2022-08-05T20:38:54.176Z,43.14
2022-08-05T20:41:27.271Z,43.49
2022-08-05T20:44:17.222Z,43.57
2022-08-05T20:46:47.066Z,43.40
2022-08-05T20:49:14.036Z,43.33
2022-08-05T20:51:41.028Z,44.10
2022-08-05T20:54:14.173Z,44.25
2022-08-05T20:56:42.494Z,44.47
2022-08-05T20:59:14.153Z,47.54
2022-08-05T21:01:46.664Z,48.01
2022-08-05T21:04:14.151Z,49.90
2022-08-05T21:06:45.812Z,50.04
2022-08-05T21:09:14.305Z,53.26
2022-08-05T21:12:06.760Z,51.41
2022-08-05T21:14:35.064Z,51.33
2022-08-05T21:17:05.748Z,51.30
2022-08-05T21:19:47.354Z,51.60
2022-08-05T21:22:17.634Z,52.75
2022-08-05T21:24:45.693Z,52.13
2022-08-05T21:27:16.890Z,52.55
2022-08-05T21:29:48.537Z,53.73
2022-08-05T21:32:20.015Z,53.66
2022-08-05T21:34:55.822Z,54.75
2022-08-05T21:37:35.100Z,55.33
2022-08-05T21:40:13.162Z,56.28
2022-08-05T21:42:45.302Z,57.73
2022-08-05T21:45:12.683Z,57.72
2022-08-05T21:47:56.172Z,58.58
2022-08-05T21:50:25.661Z,57.28
2022-08-05T21:52:52.528Z,55.99
2022-08-05T21:55:42.883Z,56.89
2022-08-05T21:58:06.956Z,58.63
2022-08-05T22:00:37.281Z,57.11
2022-08-05T22:03:03.955Z,57.01
2022-08-05T22:05:48.682Z,57.30
2022-08-05T22:08:22.480Z,58.15
2022-08-05T22:10:51.411Z,53.83
2022-08-05T22:14:06.148Z,54.11
2022-08-05T22:16:32.158Z,53.70
2022-08-05T22:18:58.699Z,51.06
2022-08-05T22:21:25.596Z,51.12
2022-08-05T22:24:02.565Z,54.26
2022-08-05T22:26:35.455Z,52.40
2022-08-05T22:29:02.426Z,52.45
2022-08-05T22:31:30.010Z,52.48
2022-08-05T22:34:01.607Z,51.67
2022-08-05T22:36:29.151Z,52.27
2022-08-05T22:38:56.727Z,51.63
2022-08-05T22:42:05.513Z,51.57
2022-08-05T22:44:12.048Z,49.60
2022-08-05T22:46:40.893Z,49.39
2022-08-05T22:49:23.285Z,52.24
2022-08-05T22:52:04.612Z,50.97
2022-08-05T22:54:34.026Z,50.18
2022-08-05T22:57:00.683Z,51.24
2022-08-05T22:59:43.767Z,51.93
2022-08-05T23:02:12.410Z,52.09
2022-08-05T23:04:43.709Z,53.19
2022-08-05T23:07:18.523Z,51.76
2022-08-05T23:09:53.262Z,52.05
2022-08-05T23:12:28.672Z,50.45
2022-08-05T23:14:55.696Z,49.52
2022-08-05T23:17:24.016Z,49.65
2022-08-05T23:20:00.991Z,49.90
2022-08-05T23:22:29.583Z,51.59
2022-08-05T23:24:58.178Z,52.76
2022-08-05T23:27:28.924Z,52.87
2022-08-05T23:30:10.668Z,52.64
2022-08-05T23:32:37.681Z,51.97
2022-08-05T23:35:11.795Z,51.94
2022-08-05T23:37:38.661Z,50.68
2022-08-05T23:40:07.436Z,52.13
2022-08-05T23:42:36.942Z,51.01
2022-08-05T23:45:05.116Z,51.87
2022-08-05T23:47:47.695Z,52.51
2022-08-05T23:50:17.117Z,52.48
2022-08-05T23:52:50.013Z,51.53
2022-08-05T23:55:18.015Z,50.27
2022-08-05T23:57:44.688Z,50.50
